createdAt,value
2018-05-01T00:00:06.728Z,97657.44
2018-05-01T00:02:34.166Z,97647.69
2018-05-01T00:05:01.639Z,97649.86
2018-05-01T00:07:29.221Z,97647.84
2018-05-01T00:09:57.302Z,97653.34
2018-05-01T00:12:24.819Z,97662.27
2018-05-01T00:17:26.910Z,97667.84
2018-05-01T00:19:54.340Z,97662.03
2018-05-01T00:22:21.815Z,97666.06
2018-05-01T00:24:49.297Z,97661.77
2018-05-01T00:27:16.754Z,97659.11
2018-05-01T00:29:44.218Z,97664.31
2018-05-01T00:32:11.666Z,97667.05
2018-05-01T00:34:39.106Z,97668.37
2018-05-01T00:37:06.539Z,97679.48
2018-05-01T00:39:33.978Z,97683.40
2018-05-01T00:42:01.422Z,97678.30
2018-05-01T00:44:28.952Z,97669.23
2018-05-01T00:46:56.382Z,97668.98
2018-05-01T00:49:23.819Z,97671.34
2018-05-01T00:51:51.290Z,97668.47
2018-05-01T00:54:18.721Z,97671.22
2018-05-01T00:56:46.162Z,97673.34
2018-05-01T00:59:13.594Z,97677.50
2018-05-01T01:01:41.074Z,97675.89
2018-05-01T01:04:08.497Z,97675.05
2018-05-01T01:06:35.937Z,97684.77
2018-05-01T01:09:03.355Z,97677.98
2018-05-01T01:11:30.800Z,97677.21
2018-05-01T01:13:58.235Z,97678.97
2018-05-01T01:16:25.686Z,97678.97
2018-05-01T01:18:53.131Z,97677.41
2018-05-01T01:21:20.579Z,97680.75
2018-05-01T01:23:48.013Z,97683.25
2018-05-01T01:26:15.458Z,97684.16
2018-05-01T01:28:42.942Z,97687.31
2018-05-01T01:31:10.369Z,97691.33
2018-05-01T01:33:37.815Z,97699.36
2018-05-01T01:36:04.784Z,97699.45
2018-05-01T01:38:31.701Z,97710.45
2018-05-01T01:40:58.583Z,97714.98
2018-05-01T01:43:25.477Z,97722.23
2018-05-01T01:45:52.386Z,97726.86
2018-05-01T01:48:19.387Z,97729.17
2018-05-01T01:50:46.287Z,97729.34
2018-05-01T01:53:13.188Z,97737.98
2018-05-01T01:55:40.118Z,97739.08
2018-05-01T01:58:07.082Z,97740.73
2018-05-01T02:00:34.015Z,97740.29
2018-05-01T02:03:00.913Z,97742.11
2018-05-01T02:05:27.880Z,97749.25
2018-05-01T02:07:54.805Z,97755.86
2018-05-01T02:10:21.726Z,97762.49
2018-05-01T02:12:48.614Z,97765.68
2018-05-01T02:15:15.513Z,97775.85
2018-05-01T02:17:42.458Z,97777.87
2018-05-01T02:20:09.361Z,97776.81
2018-05-01T02:22:36.260Z,97788.13
2018-05-01T02:25:03.156Z,97794.67
2018-05-01T02:27:30.066Z,97795.32
2018-05-01T02:29:57.041Z,97795.97
2018-05-01T02:32:23.941Z,97805.02
2018-05-01T02:34:50.822Z,97804.05
2018-05-01T02:37:17.726Z,97810.19
2018-05-01T02:39:44.612Z,97812.42
2018-05-01T02:42:11.612Z,97810.33
2018-05-01T02:44:38.496Z,97810.79
2018-05-01T02:47:05.417Z,97816.45
2018-05-01T02:49:32.331Z,97817.62
2018-05-01T02:51:59.276Z,97816.51
2018-05-01T02:54:26.177Z,97821.84
2018-05-01T02:56:53.082Z,97819.17
2018-05-01T02:59:19.985Z,97826.02
2018-05-01T03:01:46.945Z,97828.23
2018-05-01T03:04:13.850Z,97830.18
2018-05-01T03:06:40.799Z,97831.07
2018-05-01T03:09:07.719Z,97825.73
2018-05-01T03:11:34.615Z,97829.33
2018-05-01T03:14:01.506Z,97834.89
2018-05-01T03:16:28.418Z,97829.49
2018-05-01T03:18:55.321Z,97832.13
2018-05-01T03:21:22.427Z,97830.58
2018-05-01T03:23:49.381Z,97827.88
2018-05-01T03:26:16.280Z,97839.18
2018-05-01T03:28:43.156Z,97832.56
2018-05-01T03:31:10.053Z,97845.73
2018-05-01T03:33:36.979Z,97837.11
2018-05-01T03:36:03.881Z,97838.02
2018-05-01T03:38:30.939Z,97839.41
2018-05-01T03:40:57.839Z,97842.17
2018-05-01T03:43:24.785Z,97839.34
2018-05-01T03:45:51.681Z,97842.01
2018-05-01T03:48:18.591Z,97839.28
2018-05-01T03:50:45.481Z,97833.91
2018-05-01T03:53:12.397Z,97841.98
2018-05-01T03:55:39.288Z,97846.52
2018-05-01T03:58:06.181Z,97843.95
2018-05-01T04:00:33.123Z,97847.90
2018-05-01T04:03:00.000Z,97846.68
2018-05-01T04:05:26.895Z,97853.98
2018-05-01T04:07:53.818Z,97861.14
2018-05-01T04:10:20.722Z,97860.28
2018-05-01T04:12:47.618Z,97858.05
2018-05-01T04:15:14.559Z,97863.02
2018-05-01T04:17:41.454Z,97873.09
2018-05-01T04:20:08.366Z,97877.03
2018-05-01T04:22:35.262Z,97882.27
2018-05-01T04:25:02.353Z,97887.35
2018-05-01T04:27:29.247Z,97888.30
2018-05-01T04:29:56.209Z,97896.09
2018-05-01T04:32:23.150Z,97908.42
2018-05-01T04:34:50.056Z,97904.11
2018-05-01T04:37:16.942Z,97917.22
2018-05-01T04:39:43.866Z,97913.09
2018-05-01T04:42:10.825Z,97921.09
2018-05-01T04:44:37.721Z,97917.44
2018-05-01T04:47:04.613Z,97923.05
2018-05-01T04:49:31.511Z,97932.06
2018-05-01T04:51:58.402Z,97930.80
2018-05-01T04:54:25.357Z,97924.25
2018-05-01T04:56:52.236Z,97938.55
2018-05-01T04:59:19.125Z,97937.51
2018-05-01T05:01:46.033Z,97941.88
2018-05-01T05:04:12.915Z,97954.05
2018-05-01T05:06:39.860Z,97954.39
2018-05-01T05:09:06.817Z,97958.21
2018-05-01T05:11:33.719Z,97962.05
2018-05-01T05:14:00.674Z,97973.26
2018-05-01T05:16:27.659Z,97974.02
2018-05-01T05:18:54.597Z,97986.45
2018-05-01T05:21:21.596Z,97980.05
2018-05-01T05:23:48.480Z,97984.80
2018-05-01T05:26:15.388Z,97987.20
2018-05-01T05:28:42.440Z,97983.97
2018-05-01T05:31:09.341Z,97993.36
2018-05-01T05:33:36.237Z,97993.66
2018-05-01T05:36:03.145Z,97998.52
2018-05-01T05:38:30.066Z,97998.73
2018-05-01T05:40:57.004Z,97993.44
2018-05-01T05:43:23.903Z,97989.44
2018-05-01T05:45:50.797Z,97998.28
2018-05-01T05:48:17.701Z,97998.14
2018-05-01T05:50:44.581Z,98002.05
2018-05-01T05:53:11.530Z,98004.16
2018-05-01T05:55:38.465Z,98017.35
2018-05-01T05:58:05.413Z,98014.31
2018-05-01T06:00:32.969Z,98017.27
2018-05-01T06:02:59.852Z,98023.09
2018-05-01T06:05:26.737Z,98024.60
2018-05-01T06:07:53.916Z,98027.74
2018-05-01T06:10:20.814Z,98030.08
2018-05-01T06:12:47.765Z,98040.28
2018-05-01T06:15:14.773Z,98033.35
2018-05-01T06:17:41.656Z,98035.47
2018-05-01T06:20:08.630Z,98039.05
2018-05-01T06:22:35.739Z,98045.78
2018-05-01T06:25:06.367Z,98050.30
2018-05-01T06:27:33.254Z,98061.52
2018-05-01T06:30:00.197Z,98061.79
2018-05-01T06:32:27.215Z,98060.88
2018-05-01T06:34:55.229Z,98071.38
2018-05-01T06:37:22.315Z,98072.44
2018-05-01T06:39:49.372Z,98077.91
2018-05-01T06:42:16.261Z,98087.41
2018-05-01T06:44:43.168Z,98089.23
2018-05-01T06:47:10.096Z,98088.55
2018-05-01T06:49:37.498Z,98087.77
2018-05-01T06:52:04.457Z,98086.25
2018-05-01T06:54:31.336Z,98093.59
2018-05-01T06:56:58.241Z,98087.77
2018-05-01T06:59:25.190Z,98082.86
2018-05-01T07:01:53.091Z,98077.75
2018-05-01T07:04:20.090Z,98080.55
2018-05-01T07:06:47.010Z,98088.41
2018-05-01T07:09:13.905Z,98080.28
2018-05-01T07:11:40.799Z,98083.02
2018-05-01T07:14:07.700Z,98089.98
2018-05-01T07:16:34.686Z,98096.45
2018-05-01T07:19:01.679Z,98092.66
2018-05-01T07:21:28.572Z,98097.58
2018-05-01T07:23:55.526Z,98095.70
2018-05-01T07:26:22.472Z,98097.42
2018-05-01T07:28:49.544Z,98094.39
2018-05-01T07:31:16.489Z,98093.48
2018-05-01T07:33:43.437Z,98094.13
2018-05-01T07:36:10.339Z,98098.91
2018-05-01T07:38:37.269Z,98100.48
2018-05-01T07:41:04.166Z,98105.73
2018-05-01T07:43:31.074Z,98106.53
2018-05-01T07:45:57.965Z,98109.35
2018-05-01T07:48:25.130Z,98111.25
2018-05-01T07:50:52.085Z,98113.33
2018-05-01T07:53:18.980Z,98118.47
2018-05-01T07:55:45.917Z,98113.90
2018-05-01T07:58:12.890Z,98101.78
2018-05-01T08:00:40.288Z,98108.06
2018-05-01T08:03:07.258Z,98106.47
2018-05-01T08:05:34.239Z,98105.75
2018-05-01T08:08:01.142Z,98092.94
2018-05-01T08:10:28.037Z,98088.55
2018-05-01T08:12:55.069Z,98084.78
2018-05-01T08:15:21.962Z,98096.30
2018-05-01T08:17:48.887Z,98100.84
2018-05-01T08:20:15.841Z,98102.64
2018-05-01T08:22:42.772Z,98099.96
2018-05-01T08:25:09.677Z,98102.52
2018-05-01T08:27:37.070Z,98103.22
2018-05-01T08:30:03.982Z,98105.61
2018-05-01T08:32:30.881Z,98097.47
2018-05-01T08:34:57.857Z,98095.45
2018-05-01T08:37:24.759Z,98096.48
2018-05-01T08:39:51.662Z,98102.40
2018-05-01T08:42:18.589Z,98101.28
2018-05-01T08:44:45.530Z,98112.94
2018-05-01T08:47:12.411Z,98113.80
2018-05-01T08:49:39.357Z,98106.08
2018-05-01T08:52:06.274Z,98101.13
2018-05-01T08:54:33.202Z,98110.55
2018-05-01T08:57:00.105Z,98120.16
2018-05-01T08:59:27.028Z,98124.86
2018-05-01T09:01:53.921Z,98129.32
2018-05-01T09:04:20.826Z,98124.70
2018-05-01T09:06:47.801Z,98131.58
2018-05-01T09:09:14.698Z,98136.23
2018-05-01T09:11:41.594Z,98142.34
2018-05-01T09:14:08.506Z,98147.13
2018-05-01T09:16:35.411Z,98145.68
2018-05-01T09:19:02.308Z,98148.11
2018-05-01T09:21:29.250Z,98148.36
2018-05-01T09:23:56.270Z,98146.39
2018-05-01T09:26:23.201Z,98145.75
2018-05-01T09:28:50.481Z,98149.39
2018-05-01T09:31:17.390Z,98156.47
2018-05-01T09:33:44.294Z,98153.17
2018-05-01T09:36:11.305Z,98156.22
2018-05-01T09:38:38.201Z,98158.95
2018-05-01T09:41:05.133Z,98161.73
2018-05-01T09:43:32.140Z,98153.49
2018-05-01T09:45:59.032Z,98159.36
2018-05-01T09:48:25.954Z,98145.75
2018-05-01T09:50:52.854Z,98147.80
2018-05-01T09:53:20.378Z,98145.28
2018-05-01T09:55:47.810Z,98148.20
2018-05-01T09:58:15.258Z,98145.03
2018-05-01T10:00:43.482Z,98148.77
2018-05-01T10:03:10.934Z,98159.89
2018-05-01T10:05:38.509Z,98162.64
2018-05-01T10:08:05.973Z,98160.45
2018-05-01T10:10:33.392Z,98154.69
2018-05-01T10:13:00.838Z,98148.58
2018-05-01T10:15:28.347Z,98151.77
2018-05-01T10:17:55.766Z,98148.11
2018-05-01T10:20:23.225Z,98148.66
2018-05-01T10:22:50.736Z,98153.95
2018-05-01T10:25:18.228Z,98149.52
2018-05-01T10:27:45.770Z,98145.19
2018-05-01T10:30:13.213Z,98148.48
2018-05-01T10:32:40.656Z,98151.64
2018-05-01T10:35:08.086Z,98151.44
2018-05-01T10:37:35.527Z,98143.55
2018-05-01T10:40:02.999Z,98137.89
2018-05-01T10:42:30.451Z,98130.53
2018-05-01T10:44:57.931Z,98127.31
2018-05-01T10:47:25.375Z,98122.56
2018-05-01T10:49:52.810Z,98115.68
2018-05-01T10:52:20.250Z,98128.97
2018-05-01T10:54:47.779Z,98131.77
2018-05-01T10:57:15.245Z,98124.80
2018-05-01T10:59:42.698Z,98118.78
2018-05-01T11:02:10.124Z,98120.71
2018-05-01T11:04:37.554Z,98122.16
2018-05-01T11:07:04.987Z,98122.93
2018-05-01T11:09:32.551Z,98118.66
2018-05-01T11:12:00.072Z,98117.05
2018-05-01T11:14:27.437Z,98116.44
2018-05-01T11:16:54.875Z,98123.85
2018-05-01T11:19:22.302Z,98128.64
2018-05-01T11:21:49.750Z,98128.27
2018-05-01T11:24:17.283Z,98132.20
2018-05-01T11:26:44.712Z,98133.92
2018-05-01T11:29:12.152Z,98136.94
2018-05-01T11:31:39.578Z,98131.15
2018-05-01T11:34:07.022Z,98125.41
2018-05-01T11:36:34.445Z,98126.39
2018-05-01T11:39:01.901Z,98130.63
2018-05-01T11:41:29.389Z,98123.06
2018-05-01T11:43:56.818Z,98133.56
2018-05-01T11:46:24.326Z,98131.41
2018-05-01T11:48:51.709Z,98132.02
2018-05-01T11:51:19.177Z,98145.87
2018-05-01T11:53:46.711Z,98150.76
2018-05-01T11:56:14.184Z,98142.20
2018-05-01T11:58:41.659Z,98136.70
2018-05-01T12:01:09.140Z,98136.36
2018-05-01T12:03:36.561Z,98145.58
2018-05-01T12:06:04.025Z,98144.80
2018-05-01T12:08:31.485Z,98141.95
2018-05-01T12:10:58.989Z,98139.86
2018-05-01T12:13:26.446Z,98136.92
2018-05-01T12:15:53.896Z,98126.19
2018-05-01T12:18:21.430Z,98130.86
2018-05-01T12:20:48.909Z,98134.63
2018-05-01T12:23:16.360Z,98141.59
2018-05-01T12:25:43.869Z,98132.09
2018-05-01T12:28:11.310Z,98128.86
2018-05-01T12:30:38.779Z,98123.61
2018-05-01T12:33:06.287Z,98127.86
2018-05-01T12:35:33.852Z,98136.61
2018-05-01T12:38:01.319Z,98138.33
2018-05-01T12:40:28.853Z,98134.20
2018-05-01T12:42:56.286Z,98134.45
2018-05-01T12:45:23.769Z,98129.30
2018-05-01T12:47:51.216Z,98125.36
2018-05-01T12:50:18.686Z,98131.09
2018-05-01T12:52:46.145Z,98122.88
2018-05-01T12:55:13.602Z,98124.80
2018-05-01T12:57:41.225Z,98129.02
2018-05-01T13:00:08.647Z,98126.72
2018-05-01T13:02:36.092Z,98120.39
2018-05-01T13:05:03.615Z,98120.55
2018-05-01T13:07:30.987Z,98121.84
2018-05-01T13:09:58.432Z,98123.03
2018-05-01T13:12:25.902Z,98129.84
2018-05-01T13:14:53.347Z,98118.87
2018-05-01T13:17:20.977Z,98123.20
2018-05-01T13:19:48.440Z,98102.39
2018-05-01T13:22:15.860Z,98088.27
2018-05-01T13:24:43.301Z,98096.44
2018-05-01T13:27:10.739Z,98089.67
2018-05-01T13:29:38.192Z,98087.28
2018-05-01T13:32:05.632Z,98103.07
2018-05-01T13:34:33.059Z,98098.27
2018-05-01T13:37:00.571Z,98087.17
2018-05-01T13:39:28.023Z,98071.71
2018-05-01T13:41:55.595Z,98064.16
2018-05-01T13:44:23.047Z,98058.22
2018-05-01T13:46:50.481Z,98073.00
2018-05-01T13:49:17.908Z,98081.69
2018-05-01T13:51:45.356Z,98063.98
2018-05-01T13:54:12.804Z,98053.41
2018-05-01T13:56:40.227Z,98054.55
2018-05-01T13:59:07.725Z,98053.51
2018-05-01T14:01:35.183Z,98051.38
2018-05-01T14:04:02.621Z,98047.56
2018-05-01T14:06:30.347Z,98049.94
2018-05-01T14:08:57.732Z,98041.66
2018-05-01T14:11:25.186Z,98049.13
2018-05-01T14:13:52.627Z,98049.33
2018-05-01T14:16:20.090Z,98052.87
2018-05-01T14:18:47.648Z,98046.27
2018-05-01T14:21:15.081Z,98054.05
2018-05-01T14:23:42.558Z,98041.13
2018-05-01T14:26:10.117Z,98041.03
2018-05-01T14:28:37.592Z,98045.47
2018-05-01T14:31:05.043Z,98044.26
2018-05-01T14:33:32.504Z,98044.77
2018-05-01T14:35:59.965Z,98035.59
2018-05-01T14:38:27.515Z,98037.23
2018-05-01T14:40:55.007Z,98032.13
2018-05-01T14:43:22.599Z,98036.78
2018-05-01T14:45:50.088Z,98035.00
2018-05-01T14:48:17.546Z,98031.62
2018-05-01T14:50:44.997Z,98042.67
2018-05-01T14:53:12.436Z,98034.64
2018-05-01T14:55:39.926Z,98037.73
2018-05-01T14:58:07.353Z,98036.63
2018-05-01T15:00:34.823Z,98017.81
2018-05-01T15:03:04.197Z,98028.19
2018-05-01T15:05:31.679Z,98026.05
2018-05-01T15:07:59.121Z,98018.02
2018-05-01T15:10:26.696Z,98020.86
2018-05-01T15:12:54.269Z,98020.73
2018-05-01T15:15:21.720Z,98034.25
2018-05-01T15:17:49.176Z,98031.36
2018-05-01T15:20:16.633Z,98025.98
2018-05-01T15:22:44.102Z,98023.36
2018-05-01T15:25:11.554Z,98015.38
2018-05-01T15:27:39.101Z,98013.66
2018-05-01T15:30:06.693Z,98019.56
2018-05-01T15:32:34.022Z,98023.73
2018-05-01T15:35:01.482Z,98027.83
2018-05-01T15:37:29.391Z,98020.21
2018-05-01T15:39:56.768Z,98028.89
2018-05-01T15:42:24.183Z,98021.05
2018-05-01T15:44:51.632Z,98020.42
2018-05-01T15:47:19.170Z,98033.21
2018-05-01T15:49:46.598Z,98034.44
2018-05-01T15:52:14.016Z,98028.53
2018-05-01T15:54:41.459Z,98025.33
2018-05-01T15:57:08.897Z,98027.33
2018-05-01T15:59:36.326Z,98026.41
2018-05-01T16:02:03.799Z,98026.59
2018-05-01T16:04:31.217Z,98033.69
2018-05-01T16:06:58.891Z,98030.12
2018-05-01T16:09:26.316Z,98027.79
2018-05-01T16:11:53.738Z,98020.47
2018-05-01T16:14:21.269Z,98016.13
2018-05-01T16:16:48.617Z,98017.15
2018-05-01T16:19:16.085Z,98014.36
2018-05-01T16:21:43.534Z,98010.70
2018-05-01T16:24:11.026Z,98013.78
2018-05-01T16:26:38.486Z,97998.42
2018-05-01T16:29:05.941Z,97997.81
2018-05-01T16:31:33.364Z,97996.23
2018-05-01T16:34:00.918Z,98004.25
2018-05-01T16:36:28.339Z,98004.75
2018-05-01T16:38:55.779Z,97998.09
2018-05-01T16:41:23.308Z,98000.67
2018-05-01T16:43:50.794Z,97997.12
2018-05-01T16:46:18.253Z,98002.87
2018-05-01T16:48:45.833Z,98004.95
2018-05-01T16:51:13.361Z,98006.30
2018-05-01T16:53:40.790Z,98012.64
2018-05-01T16:56:08.380Z,98005.13
2018-05-01T16:58:35.810Z,98007.77
2018-05-01T17:01:03.323Z,98016.23
2018-05-01T17:03:30.816Z,98011.91
2018-05-01T17:05:58.337Z,98018.89
2018-05-01T17:08:25.918Z,98021.98
2018-05-01T17:10:53.401Z,98011.98
2018-05-01T17:13:20.852Z,98024.60
2018-05-01T17:15:48.281Z,98024.30
2018-05-01T17:18:15.720Z,98020.31
2018-05-01T17:20:43.227Z,98023.53
2018-05-01T17:23:10.677Z,98026.36
2018-05-01T17:25:38.294Z,98014.56
2018-05-01T17:28:06.028Z,98015.78
2018-05-01T17:30:33.483Z,98020.41
2018-05-01T17:33:00.965Z,98025.36
2018-05-01T17:35:28.439Z,98025.57
2018-05-01T17:37:55.978Z,98025.27
2018-05-01T17:40:23.546Z,98031.83
2018-05-01T17:42:50.991Z,98032.77
2018-05-01T17:45:18.793Z,98031.48
2018-05-01T17:47:46.271Z,98041.87
2018-05-01T17:50:13.782Z,98051.43
2018-05-01T17:52:41.237Z,98045.97
2018-05-01T17:55:08.685Z,98044.95
2018-05-01T17:57:36.152Z,98049.80
2018-05-01T18:00:03.607Z,98048.26
2018-05-01T18:02:31.149Z,98055.07
2018-05-01T18:04:58.897Z,98066.77
2018-05-01T18:07:26.350Z,98062.25
2018-05-01T18:09:53.846Z,98066.98
2018-05-01T18:12:21.302Z,98061.81
2018-05-01T18:14:48.757Z,98063.96
2018-05-01T18:17:16.333Z,98068.79
2018-05-01T18:19:43.761Z,98069.49
2018-05-01T18:22:12.450Z,98073.05
2018-05-01T18:24:40.967Z,98075.71
2018-05-01T18:27:09.729Z,98076.83
2018-05-01T18:29:39.338Z,98080.95
2018-05-01T18:32:07.038Z,98085.23
2018-05-01T18:34:34.517Z,98083.61
2018-05-01T18:37:02.005Z,98088.06
2018-05-01T18:39:29.450Z,98090.47
2018-05-01T18:41:57.191Z,98090.64
2018-05-01T18:44:24.670Z,98092.56
2018-05-01T18:46:52.150Z,98095.83
2018-05-01T18:49:19.589Z,98096.70
2018-05-01T18:51:47.023Z,98098.39
2018-05-01T18:54:14.468Z,98106.13
2018-05-01T18:56:41.918Z,98110.85
2018-05-01T18:59:09.639Z,98113.38
2018-05-01T19:01:37.112Z,98110.77
2018-05-01T19:04:04.654Z,98108.37
2018-05-01T19:06:32.100Z,98098.52
2018-05-01T19:08:59.539Z,98106.53
2018-05-01T19:11:27.317Z,98095.81
2018-05-01T19:13:54.767Z,98101.80
2018-05-01T19:16:22.284Z,98098.69
2018-05-01T19:18:49.782Z,98111.75
2018-05-01T19:21:17.199Z,98120.73
2018-05-01T19:23:44.680Z,98130.33
2018-05-01T19:26:12.362Z,98127.52
2018-05-01T19:28:39.805Z,98140.42
2018-05-01T19:31:07.289Z,98142.63
2018-05-01T19:33:34.871Z,98144.61
2018-05-01T19:36:02.502Z,98142.83
2018-05-01T19:38:29.966Z,98139.52
2018-05-01T19:40:57.457Z,98133.79
2018-05-01T19:43:25.201Z,98137.33
2018-05-01T19:45:53.157Z,98142.45
2018-05-01T19:48:20.588Z,98141.19
2018-05-01T19:50:48.153Z,98139.32
2018-05-01T19:53:15.510Z,98139.30
2018-05-01T19:55:42.941Z,98132.61
2018-05-01T19:58:10.636Z,98128.40
2018-05-01T20:00:38.105Z,98136.58
2018-05-01T20:03:05.614Z,98133.66
2018-05-01T20:05:33.029Z,98135.61
2018-05-01T20:08:00.458Z,98137.05
2018-05-01T20:10:27.952Z,98133.85
2018-05-01T20:12:55.409Z,98134.45
2018-05-01T20:15:22.992Z,98133.85
2018-05-01T20:17:50.857Z,98138.83
2018-05-01T20:20:18.346Z,98141.67
2018-05-01T20:22:45.827Z,98144.59
2018-05-01T20:25:13.270Z,98142.36
2018-05-01T20:27:40.701Z,98142.19
2018-05-01T20:30:08.215Z,98160.30
2018-05-01T20:32:35.655Z,98151.22
2018-05-01T20:35:03.218Z,98144.13
2018-05-01T20:37:30.643Z,98143.61
2018-05-01T20:39:58.112Z,98144.45
2018-05-01T20:42:25.548Z,98142.72
2018-05-01T20:44:53.101Z,98141.63
2018-05-01T20:47:20.538Z,98143.70
2018-05-01T20:49:48.006Z,98146.41
2018-05-01T20:52:15.561Z,98145.77
2018-05-01T20:54:43.161Z,98141.72
2018-05-01T20:57:10.597Z,98147.64
2018-05-01T20:59:38.114Z,98150.53
2018-05-01T21:02:05.532Z,98145.23
2018-05-01T21:04:32.962Z,98137.73
2018-05-01T21:07:00.560Z,98132.09
2018-05-01T21:09:27.984Z,98138.92
2018-05-01T21:11:55.511Z,98144.94
2018-05-01T21:14:22.980Z,98141.25
2018-05-01T21:16:50.504Z,98142.50
2018-05-01T21:19:17.957Z,98138.04
2018-05-01T21:21:45.528Z,98140.63
2018-05-01T21:24:12.993Z,98138.24
2018-05-01T21:26:40.449Z,98136.89
2018-05-01T21:29:07.930Z,98136.83
2018-05-01T21:31:35.450Z,98136.88
2018-05-01T21:34:02.894Z,98135.05
2018-05-01T21:36:30.366Z,98136.72
2018-05-01T21:38:57.832Z,98132.06
2018-05-01T21:41:25.264Z,98135.60
2018-05-01T21:43:52.731Z,98140.11
2018-05-01T21:46:20.172Z,98145.09
2018-05-01T21:48:47.621Z,98143.28
2018-05-01T21:51:16.068Z,98146.69
2018-05-01T21:53:43.623Z,98146.78
2018-05-01T21:56:11.175Z,98143.84
2018-05-01T21:58:38.691Z,98136.38
2018-05-01T22:01:06.473Z,98141.87
2018-05-01T22:03:34.003Z,98140.17
2018-05-01T22:06:01.461Z,98138.16
2018-05-01T22:08:28.935Z,98143.59
2018-05-01T22:10:56.411Z,98143.80
2018-05-01T22:13:23.835Z,98141.05
2018-05-01T22:15:51.346Z,98147.05
2018-05-01T22:18:18.879Z,98148.00
2018-05-01T22:20:46.346Z,98149.36
2018-05-01T22:23:13.761Z,98149.06
2018-05-01T22:25:41.192Z,98153.66
2018-05-01T22:28:08.684Z,98152.75
2018-05-01T22:30:36.121Z,98150.78
2018-05-01T22:33:03.563Z,98145.51
2018-05-01T22:35:31.027Z,98156.98
2018-05-01T22:37:58.465Z,98148.95
2018-05-01T22:40:25.918Z,98146.48
2018-05-01T22:42:53.358Z,98145.14
2018-05-01T22:45:20.817Z,98142.45
2018-05-01T22:47:48.304Z,98137.06
2018-05-01T22:50:15.767Z,98149.73
2018-05-01T22:52:43.235Z,98146.81
2018-05-01T22:55:10.764Z,98141.44
2018-05-01T22:57:38.222Z,98139.55
2018-05-01T23:00:05.853Z,98137.55
2018-05-01T23:02:33.293Z,98130.72
2018-05-01T23:05:00.737Z,98133.41
2018-05-01T23:07:28.857Z,98130.37
2018-05-01T23:09:56.366Z,98121.70
2018-05-01T23:12:23.945Z,98118.52
2018-05-01T23:14:51.536Z,98115.80
2018-05-01T23:17:18.982Z,98122.34
2018-05-01T23:19:46.439Z,98111.25
2018-05-01T23:22:13.888Z,98114.55
2018-05-01T23:24:41.317Z,98108.80
2018-05-01T23:27:08.787Z,98116.61
2018-05-01T23:29:36.267Z,98117.13
2018-05-01T23:32:03.721Z,98116.59
2018-05-01T23:34:31.178Z,98119.05
2018-05-01T23:36:58.659Z,98125.04
2018-05-01T23:39:26.098Z,98130.85
2018-05-01T23:41:53.512Z,98141.61
2018-05-01T23:44:20.977Z,98147.16
2018-05-01T23:46:48.409Z,98145.38
2018-05-01T23:49:15.854Z,98142.21
2018-05-01T23:51:43.271Z,98140.59
2018-05-01T23:54:10.738Z,98143.63
2018-05-01T23:56:38.168Z,98134.34
2018-05-01T23:59:06.058Z,98136.75
